Terminal Aerodrome Forecast
Issued by NWS Mt. Holly, NJ

Home | Current Version | Previous Version | Text Only | Print | Product List | Glossary On
Versions: 1 2 3 4 5 6 7 8 9 10 11 12 13
227
FTUS41 KPHI 240521
TAFTTN
TAF
KTTN 240521Z 2406/2506 15003KT P6SM SKC
     FM241300 13005KT P6SM SKC
     FM241600 15009KT P6SM BKN220
     FM242300 12010KT 6SM -RA OVC030
     FM250400 12011G19KT 2SM RA BR OVC015=

USA.gov is the U.S. government's official web portal to all federal, state and local government web resources and services.